createdAt,value
2023-04-12T00:01:43.421Z,5.25
2023-04-12T00:04:14.332Z,5.95
2023-04-12T00:06:42.274Z,4.10
2023-04-12T00:09:09.811Z,6.40
2023-04-12T00:11:37.720Z,6.32
2023-04-12T00:14:06.599Z,8.82
2023-04-12T00:16:36.893Z,7.90
2023-04-12T00:19:04.530Z,5.30
2023-04-12T00:21:32.723Z,8.15
2023-04-12T00:24:01.198Z,8.10
2023-04-12T00:26:33.290Z,8.15
2023-04-12T00:29:01.106Z,6.47
2023-04-12T00:31:30.368Z,8.73
2023-04-12T00:33:58.672Z,5.25
2023-04-12T00:36:31.737Z,6.05
2023-04-12T00:38:59.299Z,6.22
2023-04-12T00:41:52.555Z,7.38
2023-04-12T00:44:20.423Z,5.80
2023-04-12T00:46:49.388Z,4.53
2023-04-12T00:49:17.173Z,8.10
2023-04-12T00:51:47.681Z,8.02
2023-04-12T00:54:17.926Z,6.60
2023-04-12T00:56:47.200Z,6.00
2023-04-12T00:59:15.271Z,7.55
2023-04-12T01:01:46.328Z,7.25
2023-04-12T01:04:15.344Z,6.80
2023-04-12T01:07:01.562Z,10.98
2023-04-12T01:09:37.164Z,4.43
2023-04-12T01:12:13.240Z,6.32
2023-04-12T01:14:52.602Z,6.38
2023-04-12T01:17:27.519Z,6.80
2023-04-12T01:20:00.186Z,5.40
2023-04-12T01:22:46.133Z,6.97
2023-04-12T01:25:27.177Z,5.60
2023-04-12T01:28:00.894Z,9.18
2023-04-12T01:30:30.642Z,6.35
2023-04-12T01:33:01.654Z,6.63
2023-04-12T01:35:56.223Z,5.57
2023-04-12T01:38:25.627Z,6.60
2023-04-12T01:40:53.192Z,6.57
2023-04-12T01:43:26.013Z,5.43
2023-04-12T01:45:55.711Z,7.50
2023-04-12T01:48:23.569Z,6.03
2023-04-12T01:51:01.396Z,4.38
2023-04-12T01:53:37.624Z,5.90
2023-04-12T01:56:10.217Z,8.50
2023-04-12T01:58:44.206Z,8.38
2023-04-12T02:01:15.408Z,10.07
2023-04-12T02:03:45.104Z,6.20
2023-04-12T02:06:15.025Z,6.75
2023-04-12T02:08:42.792Z,5.25
2023-04-12T02:11:12.205Z,8.13
2023-04-12T02:13:42.348Z,7.25
2023-04-12T02:16:10.991Z,8.05
2023-04-12T02:18:41.518Z,6.80
2023-04-12T02:21:11.630Z,6.72
2023-04-12T02:23:39.287Z,7.60
2023-04-12T02:26:07.513Z,8.85
2023-04-12T02:28:59.973Z,8.77
2023-04-12T02:31:30.531Z,8.57
2023-04-12T02:33:58.706Z,8.90
2023-04-12T02:36:27.221Z,6.35
2023-04-12T02:38:56.035Z,8.75
2023-04-12T02:41:25.555Z,6.90
2023-04-12T02:43:53.890Z,5.53
2023-04-12T02:46:27.051Z,7.95
2023-04-12T02:49:00.597Z,5.68
2023-04-12T02:51:40.254Z,6.80
2023-04-12T02:54:09.207Z,5.80
2023-04-12T02:56:49.859Z,9.32
2023-04-12T02:59:34.635Z,6.80
2023-04-12T03:02:12.930Z,5.40
2023-04-12T03:04:43.187Z,6.82
2023-04-12T03:07:20.071Z,4.80
2023-04-12T03:09:52.684Z,7.20
2023-04-12T03:12:22.363Z,6.63
2023-04-12T03:15:07.381Z,6.22
2023-04-12T03:17:36.656Z,4.55
2023-04-12T03:20:10.429Z,5.53
2023-04-12T03:22:42.193Z,6.60
2023-04-12T03:25:12.603Z,5.32
2023-04-12T03:27:45.741Z,5.40
2023-04-12T03:30:16.744Z,3.27
2023-04-12T03:32:45.759Z,7.07
2023-04-12T03:35:15.552Z,5.32
2023-04-12T03:37:44.502Z,4.97
2023-04-12T03:40:14.086Z,4.65
2023-04-12T03:42:46.817Z,3.53
2023-04-12T03:45:16.431Z,5.70
2023-04-12T03:47:49.200Z,5.55
2023-04-12T03:50:24.196Z,4.10
2023-04-12T03:52:57.302Z,7.03
2023-04-12T03:55:31.643Z,5.85
2023-04-12T03:58:01.300Z,4.63
2023-04-12T04:00:37.210Z,4.97
2023-04-12T04:03:10.183Z,7.13
2023-04-12T04:05:51.218Z,6.28
2023-04-12T04:08:22.188Z,5.55
2023-04-12T04:10:52.655Z,6.10
2023-04-12T04:13:23.651Z,4.95
2023-04-12T04:16:01.386Z,8.25
2023-04-12T04:18:30.576Z,3.92
2023-04-12T04:21:00.355Z,5.07
2023-04-12T04:23:38.330Z,6.33
2023-04-12T04:26:09.985Z,7.82
2023-04-12T04:28:45.077Z,5.82
2023-04-12T04:31:17.586Z,5.43
2023-04-12T04:33:50.220Z,5.25
2023-04-12T04:36:24.278Z,4.45
2023-04-12T04:39:46.257Z,7.30
2023-04-12T04:42:13.981Z,3.92
2023-04-12T04:45:05.209Z,6.80
2023-04-12T04:47:38.917Z,4.13
2023-04-12T04:50:08.376Z,5.07
2023-04-12T04:52:39.253Z,6.50
2023-04-12T04:55:13.317Z,5.90
2023-04-12T04:58:13.780Z,5.00
2023-04-12T05:00:44.836Z,4.78
2023-04-12T05:03:13.417Z,3.92
2023-04-12T05:05:41.095Z,5.03
2023-04-12T05:08:12.943Z,5.65
2023-04-12T05:10:40.838Z,4.20
2023-04-12T05:13:09.823Z,5.63
2023-04-12T05:15:37.472Z,4.53
2023-04-12T05:18:05.973Z,3.42
2023-04-12T05:20:33.593Z,4.78
2023-04-12T05:23:02.221Z,6.40
2023-04-12T05:25:31.362Z,4.57
2023-04-12T05:28:06.610Z,4.65
2023-04-12T05:30:34.883Z,4.97
2023-04-12T05:33:07.218Z,4.25
2023-04-12T05:35:37.686Z,4.50
2023-04-12T05:38:06.910Z,4.18
2023-04-12T05:40:36.372Z,5.07
2023-04-12T05:43:07.723Z,3.47
2023-04-12T05:45:35.389Z,4.32
2023-04-12T05:48:05.140Z,4.03
2023-04-12T05:50:34.211Z,5.55
2023-04-12T05:53:03.113Z,5.03
2023-04-12T05:55:34.918Z,4.55
2023-04-12T05:58:05.448Z,7.07
2023-04-12T06:00:34.344Z,4.47
2023-04-12T06:03:03.759Z,3.33
2023-04-12T06:05:31.973Z,3.30
2023-04-12T06:08:00.811Z,3.88
2023-04-12T06:10:29.217Z,3.38
2023-04-12T06:12:58.788Z,4.82
2023-04-12T06:15:28.327Z,3.28
2023-04-12T06:17:56.309Z,2.78
2023-04-12T06:20:23.995Z,3.88
2023-04-12T06:22:53.211Z,3.92
2023-04-12T06:25:22.839Z,4.20
2023-04-12T06:27:50.808Z,4.57
2023-04-12T06:30:20.832Z,4.25
2023-04-12T06:32:53.039Z,3.60
2023-04-12T06:35:21.460Z,4.20
2023-04-12T06:37:50.216Z,3.42
2023-04-12T06:40:18.301Z,3.95
2023-04-12T06:42:45.910Z,2.80
2023-04-12T06:45:13.504Z,3.88
2023-04-12T06:47:41.532Z,5.30
2023-04-12T06:50:15.243Z,4.05
2023-04-12T06:52:44.188Z,5.03
2023-04-12T06:57:44.586Z,3.10
2023-04-12T07:00:13.382Z,3.53
2023-04-12T07:02:41.085Z,2.65
2023-04-12T07:05:38.912Z,2.72
2023-04-12T07:08:06.972Z,3.47
2023-04-12T07:10:36.069Z,3.10
2023-04-12T07:13:29.221Z,2.67
2023-04-12T07:15:58.159Z,2.80
2023-04-12T07:18:25.900Z,2.17
2023-04-12T07:20:57.755Z,4.45
2023-04-12T07:23:29.292Z,2.25
2023-04-12T07:26:00.534Z,4.17
2023-04-12T07:28:30.298Z,2.43
2023-04-12T07:31:00.207Z,2.97
2023-04-12T07:33:28.003Z,2.85
2023-04-12T07:35:58.237Z,1.42
2023-04-12T07:38:26.613Z,2.72
2023-04-12T07:40:55.298Z,2.00
2023-04-12T07:43:22.985Z,1.98
2023-04-12T07:45:52.757Z,3.10
2023-04-12T07:48:20.675Z,3.42
2023-04-12T07:50:48.280Z,2.47
2023-04-12T07:53:48.110Z,2.33
2023-04-12T07:56:16.229Z,3.00
2023-04-12T07:58:43.888Z,3.33
2023-04-12T08:01:13.110Z,2.17
2023-04-12T08:03:40.786Z,2.30
2023-04-12T08:06:09.142Z,3.70
2023-04-12T08:08:36.866Z,2.05
2023-04-12T08:11:06.832Z,1.90
2023-04-12T08:13:35.409Z,2.53
2023-04-12T08:16:04.221Z,2.60
2023-04-12T08:18:32.202Z,2.88
2023-04-12T08:21:01.420Z,2.78
2023-04-12T08:23:32.201Z,1.83
2023-04-12T08:26:03.558Z,2.00
2023-04-12T08:28:33.482Z,1.42
2023-04-12T08:31:01.354Z,2.17
2023-04-12T08:33:29.055Z,2.95
2023-04-12T08:35:58.277Z,1.80
2023-04-12T08:38:41.354Z,1.92
2023-04-12T08:41:12.560Z,1.85
2023-04-12T08:43:45.292Z,2.08
2023-04-12T08:46:15.503Z,2.13
2023-04-12T08:48:46.189Z,2.05
2023-04-12T08:51:15.776Z,2.58
2023-04-12T08:53:44.323Z,1.90
2023-04-12T08:56:15.090Z,2.03
2023-04-12T08:58:49.032Z,2.10
2023-04-12T09:01:17.942Z,2.28
2023-04-12T09:03:46.576Z,2.05
2023-04-12T09:06:14.619Z,1.75
2023-04-12T09:08:56.224Z,2.80
2023-04-12T09:11:25.638Z,3.33
2023-04-12T09:13:56.623Z,2.53
2023-04-12T09:16:38.176Z,1.40
2023-04-12T09:19:06.252Z,2.10
2023-04-12T09:21:38.380Z,2.20
2023-04-12T09:24:13.559Z,3.30
2023-04-12T09:26:42.351Z,1.85
2023-04-12T09:29:26.102Z,2.20
2023-04-12T09:31:58.179Z,1.85
2023-04-12T09:34:29.221Z,2.13
2023-04-12T09:36:57.149Z,2.53
2023-04-12T09:39:32.671Z,1.75
2023-04-12T09:42:14.836Z,2.13
2023-04-12T09:44:49.253Z,1.85
2023-04-12T09:47:19.203Z,1.92
2023-04-12T09:49:47.742Z,2.88
2023-04-12T09:52:16.745Z,2.20
2023-04-12T09:54:45.777Z,1.83
2023-04-12T09:57:14.142Z,3.42
2023-04-12T09:59:43.161Z,2.75
2023-04-12T10:02:22.434Z,2.38
2023-04-12T10:04:50.879Z,3.30
2023-04-12T10:07:19.572Z,1.80
2023-04-12T10:09:48.187Z,1.65
2023-04-12T10:12:16.260Z,1.77
2023-04-12T10:14:46.961Z,1.70
2023-04-12T10:17:16.046Z,2.70
2023-04-12T10:19:45.153Z,2.30
2023-04-12T10:22:13.884Z,2.20
2023-04-12T10:24:41.506Z,2.97
2023-04-12T10:27:10.089Z,1.67
2023-04-12T10:29:39.670Z,1.95
2023-04-12T10:32:22.278Z,1.80
2023-04-12T10:34:52.015Z,1.88
2023-04-12T10:37:19.931Z,1.48
2023-04-12T10:39:53.870Z,2.50
2023-04-12T10:42:26.951Z,3.20
2023-04-12T10:44:56.248Z,2.90
2023-04-12T10:48:02.289Z,2.20
2023-04-12T10:50:31.798Z,3.63
2023-04-12T10:53:25.665Z,3.13
2023-04-12T10:55:53.535Z,2.70
2023-04-12T10:58:58.849Z,2.78
2023-04-12T11:01:30.517Z,2.75
2023-04-12T11:04:17.009Z,3.55
2023-04-12T11:07:12.382Z,2.53
2023-04-12T11:09:43.258Z,3.35
2023-04-12T11:12:17.064Z,3.15
2023-04-12T11:14:46.919Z,2.85
2023-04-12T11:17:25.967Z,3.15
2023-04-12T11:19:58.335Z,3.17
2023-04-12T11:22:29.798Z,3.50
2023-04-12T11:24:59.361Z,3.20
2023-04-12T11:27:28.130Z,3.00
2023-04-12T11:29:58.839Z,3.45
2023-04-12T11:32:28.014Z,2.95
2023-04-12T11:34:59.220Z,2.70
2023-04-12T11:37:32.267Z,3.38
2023-04-12T11:40:00.641Z,3.05
2023-04-12T11:42:30.127Z,3.38
2023-04-12T11:45:01.069Z,3.20
2023-04-12T11:47:31.376Z,3.60
2023-04-12T11:50:01.220Z,3.10
2023-04-12T11:52:30.542Z,2.83
2023-04-12T11:55:01.421Z,3.42
2023-04-12T11:57:30.856Z,2.95
2023-04-12T11:59:59.841Z,2.92
2023-04-12T12:02:33.092Z,3.00
2023-04-12T12:05:07.954Z,3.78
2023-04-12T12:07:37.717Z,3.10
2023-04-12T12:10:07.085Z,3.42
2023-04-12T12:12:35.254Z,3.47
2023-04-12T12:15:03.292Z,3.58
2023-04-12T12:17:32.302Z,3.88
2023-04-12T12:20:01.451Z,3.60
2023-04-12T12:22:31.406Z,2.97
2023-04-12T12:25:05.203Z,3.28
2023-04-12T12:27:36.537Z,2.92
2023-04-12T12:30:07.565Z,2.22
2023-04-12T12:32:37.027Z,2.42
2023-04-12T12:35:10.234Z,2.25
2023-04-12T12:37:48.833Z,1.38
2023-04-12T12:40:16.784Z,0.68
2023-04-12T12:42:49.735Z,0.73
2023-04-12T12:45:20.057Z,0.80
2023-04-12T12:47:52.744Z,1.05
2023-04-12T12:53:17.739Z,0.88
2023-04-12T12:55:45.496Z,1.00
2023-04-12T12:58:13.070Z,2.75
2023-04-12T13:00:41.451Z,0.98
2023-04-12T13:03:09.431Z,1.15
2023-04-12T13:05:37.137Z,2.00
2023-04-12T13:08:06.085Z,2.72
2023-04-12T13:10:34.980Z,1.00
2023-04-12T13:13:03.844Z,0.90
2023-04-12T13:15:32.266Z,0.73
2023-04-12T13:18:00.264Z,1.10
2023-04-12T13:20:28.422Z,1.13
2023-04-12T13:22:58.289Z,1.20
2023-04-12T13:25:26.077Z,1.85
2023-04-12T13:27:54.996Z,1.50
2023-04-12T13:30:24.215Z,2.65
2023-04-12T13:32:51.885Z,2.10
2023-04-12T13:35:19.536Z,1.63
2023-04-12T13:37:47.078Z,3.85
2023-04-12T13:40:15.214Z,4.30
2023-04-12T13:42:44.661Z,4.97
2023-04-12T13:45:13.794Z,4.57
2023-04-12T13:47:41.758Z,4.53
2023-04-12T13:50:12.724Z,6.78
2023-04-12T13:52:40.388Z,5.68
2023-04-12T13:55:09.449Z,8.48
2023-04-12T13:57:37.046Z,5.70
2023-04-12T14:00:06.406Z,3.92
2023-04-12T14:02:35.407Z,3.30
2023-04-12T14:05:04.205Z,4.45
2023-04-12T14:07:57.564Z,3.95
2023-04-12T14:10:26.365Z,2.85
2023-04-12T14:12:54.646Z,4.45
2023-04-12T14:15:22.322Z,2.72
2023-04-12T14:17:51.763Z,2.92
2023-04-12T14:20:20.516Z,5.07
2023-04-12T14:22:48.107Z,3.08
2023-04-12T14:25:15.822Z,3.92
2023-04-12T14:27:43.410Z,4.53
2023-04-12T14:30:11.260Z,4.45
2023-04-12T14:32:39.818Z,5.63
2023-04-12T14:35:09.597Z,5.95
2023-04-12T14:37:37.152Z,5.70
2023-04-12T14:40:08.262Z,7.40
2023-04-12T14:42:35.904Z,5.45
2023-04-12T14:45:05.244Z,6.20
2023-04-12T14:47:36.805Z,5.10
2023-04-12T14:50:05.356Z,6.57
2023-04-12T14:52:35.233Z,4.63
2023-04-12T14:55:03.905Z,5.45
2023-04-12T14:57:32.692Z,8.63
2023-04-12T15:00:02.207Z,6.38
2023-04-12T15:02:30.021Z,6.88
2023-04-12T15:04:58.976Z,6.18
2023-04-12T15:07:27.782Z,7.32
2023-04-12T15:09:58.521Z,3.95
2023-04-12T15:12:28.824Z,7.82
2023-04-12T15:14:57.493Z,6.05
2023-04-12T15:17:27.106Z,7.07
2023-04-12T15:19:57.657Z,7.18
2023-04-12T15:22:27.627Z,6.50
2023-04-12T15:24:57.675Z,7.50
2023-04-12T15:27:50.713Z,9.43
2023-04-12T15:30:18.380Z,8.60
2023-04-12T15:32:46.265Z,6.47
2023-04-12T15:35:26.069Z,5.65
2023-04-12T15:37:55.381Z,4.90
2023-04-12T15:40:25.395Z,5.15
2023-04-12T15:42:57.332Z,5.38
2023-04-12T15:45:25.154Z,4.70
2023-04-12T15:47:55.094Z,4.05
2023-04-12T15:53:16.811Z,7.20
2023-04-12T15:55:47.023Z,6.25
2023-04-12T15:58:15.363Z,6.25
2023-04-12T16:01:08.484Z,4.82
2023-04-12T16:03:37.130Z,6.38
2023-04-12T16:06:05.166Z,7.97
2023-04-12T16:08:34.381Z,6.05
2023-04-12T16:11:04.052Z,6.95
2023-04-12T16:13:32.344Z,5.25
2023-04-12T16:15:59.974Z,6.90
2023-04-12T16:18:30.772Z,8.82
2023-04-12T16:20:58.654Z,7.57
2023-04-12T16:23:28.523Z,7.32
2023-04-12T16:25:56.830Z,5.35
2023-04-12T16:35:24.645Z,8.18
2023-04-12T16:37:57.822Z,6.65
2023-04-12T16:40:29.198Z,8.57
2023-04-12T16:46:16.401Z,7.93
2023-04-12T16:48:55.540Z,11.65
2023-04-12T16:51:36.766Z,7.45
2023-04-12T16:57:49.647Z,7.93
2023-04-12T17:04:01.187Z,7.38
2023-04-12T17:10:11.726Z,8.65
2023-04-12T17:16:23.602Z,6.18
2023-04-12T17:18:51.619Z,7.47
2023-04-12T17:21:54.904Z,10.50
2023-04-12T17:24:28.959Z,7.53
2023-04-12T17:27:23.635Z,6.63
2023-04-12T17:29:52.800Z,9.10
2023-04-12T17:32:20.821Z,6.00
2023-04-12T17:34:54.619Z,8.90
2023-04-12T17:37:24.242Z,7.25
2023-04-12T17:39:52.180Z,5.25
2023-04-12T17:42:20.710Z,4.85
2023-04-12T17:44:48.465Z,4.28
2023-04-12T17:47:17.400Z,2.95
2023-04-12T17:49:47.341Z,3.78
2023-04-12T17:52:17.779Z,4.13
2023-04-12T17:54:46.981Z,2.67
2023-04-12T17:57:14.584Z,2.78
2023-04-12T17:59:42.228Z,3.33
2023-04-12T18:02:10.268Z,3.05
2023-04-12T18:04:38.492Z,2.28
2023-04-12T18:07:09.492Z,3.33
2023-04-12T18:09:38.170Z,2.38
2023-04-12T18:12:07.386Z,1.55
2023-04-12T18:14:35.404Z,2.15
2023-04-12T18:17:03.379Z,2.65
2023-04-12T18:19:31.027Z,2.83
2023-04-12T18:22:00.194Z,3.20
2023-04-12T18:24:27.999Z,3.75
2023-04-12T18:26:57.267Z,4.00
2023-04-12T18:29:27.276Z,4.13
2023-04-12T18:31:54.893Z,5.43
2023-04-12T18:34:23.249Z,2.28
2023-04-12T18:36:52.712Z,1.77
2023-04-12T18:39:21.373Z,2.25
2023-04-12T18:41:48.950Z,3.08
2023-04-12T18:44:19.130Z,2.30
2023-04-12T18:46:48.126Z,2.92
2023-04-12T18:49:16.068Z,3.20
2023-04-12T18:51:43.756Z,2.35
2023-04-12T18:54:13.700Z,5.20
2023-04-12T18:56:42.506Z,2.83
2023-04-12T18:59:15.744Z,2.08
2023-04-12T19:01:43.576Z,2.63
2023-04-12T19:04:12.902Z,2.22
2023-04-12T19:06:40.737Z,3.00
2023-04-12T19:09:09.157Z,3.60
2023-04-12T19:11:37.227Z,2.38
2023-04-12T19:14:05.416Z,1.85
2023-04-12T19:16:33.956Z,1.65
2023-04-12T19:19:01.780Z,2.28
2023-04-12T19:21:30.989Z,2.22
2023-04-12T19:24:00.515Z,3.15
2023-04-12T19:26:30.258Z,3.22
2023-04-12T19:28:58.786Z,2.20
2023-04-12T19:31:26.969Z,2.13
2023-04-12T19:33:55.306Z,2.63
2023-04-12T19:36:24.389Z,1.20
2023-04-12T19:38:53.368Z,2.58
2023-04-12T19:41:20.961Z,5.32
2023-04-12T19:43:48.731Z,2.30
2023-04-12T19:46:17.269Z,2.92
2023-04-12T19:48:46.311Z,2.45
2023-04-12T19:51:15.267Z,4.75
2023-04-12T19:53:43.231Z,3.50
2023-04-12T19:56:14.943Z,2.30
2023-04-12T20:01:13.518Z,2.38
2023-04-12T20:03:44.473Z,3.05
2023-04-12T20:06:12.094Z,3.90
2023-04-12T20:08:39.894Z,3.67
2023-04-12T20:11:07.839Z,3.38
2023-04-12T20:13:37.108Z,3.28
2023-04-12T20:16:04.839Z,3.90
2023-04-12T20:18:32.617Z,3.80
2023-04-12T20:21:00.224Z,3.10
2023-04-12T20:23:29.076Z,4.18
2023-04-12T20:25:57.393Z,3.75
2023-04-12T20:28:25.684Z,3.67
2023-04-12T20:30:54.624Z,4.82
2023-04-12T20:33:22.333Z,4.35
2023-04-12T20:35:52.276Z,4.57
2023-04-12T20:38:20.255Z,4.05
2023-04-12T20:40:48.941Z,4.28
2023-04-12T20:43:16.496Z,3.63
2023-04-12T20:45:46.932Z,3.33
2023-04-12T20:48:15.880Z,4.75
2023-04-12T20:50:44.360Z,3.05
2023-04-12T20:53:14.997Z,4.05
2023-04-12T20:55:44.160Z,4.63
2023-04-12T20:58:12.984Z,3.05
2023-04-12T21:00:40.691Z,2.85
2023-04-12T21:03:08.543Z,3.85
2023-04-12T21:05:38.587Z,4.25
2023-04-12T21:08:07.398Z,4.13
2023-04-12T21:10:35.013Z,3.67
2023-04-12T21:13:03.056Z,4.07
2023-04-12T21:15:35.188Z,4.75
2023-04-12T21:18:04.151Z,4.20
2023-04-12T21:20:32.103Z,3.50
2023-04-12T21:23:03.763Z,3.45
2023-04-12T21:25:32.288Z,4.57
2023-04-12T21:28:01.376Z,4.25
2023-04-12T21:30:28.970Z,5.50
2023-04-12T21:32:56.756Z,5.32
2023-04-12T21:35:25.251Z,5.57
2023-04-12T21:37:53.426Z,4.75
2023-04-12T21:40:22.951Z,4.57
2023-04-12T21:42:51.377Z,5.93
2023-04-12T21:45:19.462Z,6.97
2023-04-12T21:47:47.171Z,5.63
2023-04-12T21:50:15.774Z,5.38
2023-04-12T21:52:45.340Z,6.05
2023-04-12T21:55:14.429Z,5.95
2023-04-12T21:57:43.978Z,5.63
2023-04-12T22:00:12.695Z,5.80
2023-04-12T22:02:40.406Z,7.43
2023-04-12T22:05:08.676Z,5.45
2023-04-12T22:07:40.718Z,5.95
2023-04-12T22:10:11.803Z,7.80
2023-04-12T22:12:40.005Z,5.53
2023-04-12T22:15:11.547Z,6.10
2023-04-12T22:17:39.474Z,6.45
2023-04-12T22:20:08.544Z,5.28
2023-04-12T22:22:37.260Z,6.03
2023-04-12T22:25:11.263Z,6.53
2023-04-12T22:27:39.173Z,7.03
2023-04-12T22:30:11.434Z,6.45
2023-04-12T22:32:39.070Z,9.00
2023-04-12T22:35:09.084Z,5.13
2023-04-12T22:37:37.631Z,4.68
2023-04-12T22:40:06.619Z,5.25
2023-04-12T22:42:36.858Z,5.28
2023-04-12T22:45:06.303Z,4.90
2023-04-12T22:47:35.587Z,6.50
2023-04-12T22:50:08.283Z,5.40
2023-04-12T22:52:37.837Z,4.50
2023-04-12T22:55:07.466Z,5.03
2023-04-12T22:57:36.117Z,5.03
2023-04-12T23:00:06.312Z,4.60
2023-04-12T23:02:36.228Z,5.60
2023-04-12T23:05:07.271Z,4.68
2023-04-12T23:07:35.411Z,5.13
2023-04-12T23:10:07.253Z,4.25
2023-04-12T23:12:38.940Z,3.30
2023-04-12T23:15:07.545Z,6.13
2023-04-12T23:17:37.570Z,4.10
2023-04-12T23:20:11.249Z,2.97
2023-04-12T23:22:56.557Z,2.90
2023-04-12T23:25:29.131Z,3.95
2023-04-12T23:27:57.325Z,5.00
2023-04-12T23:30:29.461Z,3.53
2023-04-12T23:33:00.394Z,3.88
2023-04-12T23:35:29.238Z,3.55
2023-04-12T23:37:57.279Z,3.20
2023-04-12T23:40:25.656Z,4.30
2023-04-12T23:42:53.259Z,4.82
2023-04-12T23:45:24.273Z,3.42
2023-04-12T23:47:52.394Z,4.43
2023-04-12T23:50:21.611Z,4.05
2023-04-12T23:52:49.799Z,3.10
2023-04-12T23:55:19.727Z,3.80
2023-04-12T23:57:47.514Z,3.33
